Snowdrift, Canada
Current Conditions -  °F | °C
As of 3:00 AM on Monday 26 Jan 2015 (Local Time) from CYZF Reporting Station
Light Snow Light Snow  
Wind Chill: -14°   Ceiling: 2500
Heat Index:   Visibility: 15mi
Dew Point: -2°   Wind: 9mph
Humidity: 85%   Direction: 300°WNW
Pressure: 29.66"   Gusts: NA
Location:  62.41°N, 110.72°W
Report Text: CYZF 261000Z 30008KT 15SM -SN OVC025 M17/M19 A2966 RMK SC8 SLP068
Loading
Personal Weather Stations






























Interactive Weather Map New forecast layout! Learn more

10-Day Weather Forecast

Advertisements
Track Severe Weather on mobile